»·PEaware :: WAT462 KASE-KLAS

WAT462 :: KASE-KLAS

FLIGHT INFORMATION

Flight Status: Arrived
Operator:
Walker Air Transport
More flights by this operator :: More flights under this callsign
Pilot: Andrew C. (32327)
Aircraft: Unknown
(E35L)
More flights by this aircraft type
Origin: KASE Aspen-Pitkin Co/Sardy
United States
Destination: KLAS McCarran Intl
United States
More flights between these airports :: More routes between these airports
Route: LINDZ9 JNC GGAPP SITEE4
File this flight plan on PilotEdge
Remarks: RMK / SIMBRIEF
Altitude:
(Current/Filed)
38,000ft
Speed:
(Current/Filed)
422kts
Departed: 19-Feb-21 04:54 PM
Arrived: 19-Feb-21 06:17 PM
Distance/Time
Traveled:
436nm/1:22
Distance/Time
To Go:
Arrived

Flight Plot

Page will automatically refresh every two minutes.

Flight plan parsing failed; only flown route is shown


Map Options




Map Legend


Flown Route
Filed Route
Departure Airport
Arrival Airport
Navaid (VOR, NDB)
Fix

Horizontal Profiles

Position Reports

Time Latitude Longitude Heading Altitude Ground
Speed
19-Feb-21 16:36 39.218880 -106.864619 69 7844ft 0kts
19-Feb-21 16:37 39.218880 -106.864619 69 7844ft 0kts
19-Feb-21 16:38 39.218880 -106.864619 69 7844ft 0kts
19-Feb-21 16:39 39.218880 -106.864619 69 7844ft 0kts
19-Feb-21 16:40 39.218880 -106.864619 69 7844ft 0kts
19-Feb-21 16:41 39.218880 -106.864619 69 7844ft 0kts
19-Feb-21 16:42 39.218880 -106.864619 69 7844ft 0kts
19-Feb-21 16:43 39.218880 -106.864619 69 7844ft 0kts
19-Feb-21 16:44 39.218880 -106.864619 69 7844ft 0kts
19-Feb-21 16:45 39.218880 -106.864619 69 7844ft 0kts
19-Feb-21 16:46 39.218880 -106.864619 69 7844ft 0kts
19-Feb-21 16:47 39.218881 -106.864613 69 7844ft 0kts
19-Feb-21 16:48 39.218782 -106.865230 104 7844ft 2kts
19-Feb-21 16:49 39.219089 -106.865631 163 7844ft 0kts
19-Feb-21 16:50 39.219089 -106.865631 163 7844ft 0kts
19-Feb-21 16:51 39.216581 -106.864479 160 7844ft 20kts
19-Feb-21 16:52 39.212264 -106.863661 339 7844ft 21kts
19-Feb-21 16:53 39.252229 -106.876985 351 9309ft 225kts
19-Feb-21 16:54 39.285860 -106.947342 309 12250ft 248kts
19-Feb-21 16:55 39.310873 -107.014324 281 15471ft 187kts
19-Feb-21 16:56 39.339441 -107.072930 303 18633ft 219kts
19-Feb-21 16:57 39.380969 -107.144969 297 21147ft 286kts
19-Feb-21 16:58 39.372461 -107.241136 264 26793ft 242kts
19-Feb-21 16:59 39.356201 -107.325324 264 30218ft 234kts
19-Feb-21 17:00 39.338740 -107.414831 263 32201ft 266kts
19-Feb-21 17:01 39.321447 -107.502964 263 35180ft 251kts
19-Feb-21 17:02 39.304364 -107.589586 263 37391ft 247kts
19-Feb-21 17:03 39.287274 -107.675994 262 38231ft 265kts
19-Feb-21 17:04 39.267574 -107.775071 261 38220ft 306kts
19-Feb-21 17:05 39.244928 -107.888265 261 38215ft 346kts
19-Feb-21 17:06 39.219651 -108.013902 260 38208ft 376kts
19-Feb-21 17:07 39.192656 -108.147137 260 38211ft 390kts
19-Feb-21 17:08 39.165000 -108.282865 260 38215ft 394kts
19-Feb-21 17:09 39.136886 -108.419977 260 38211ft 396kts
19-Feb-21 17:10 39.108657 -108.556790 260 38207ft 396kts
19-Feb-21 17:11 39.080312 -108.693218 259 38227ft 397kts
19-Feb-21 17:12 39.043859 -108.827929 249 38232ft 407kts
19-Feb-21 17:13 38.988737 -108.955669 248 38225ft 410kts
19-Feb-21 17:14 38.933273 -109.082828 248 38208ft 410kts
19-Feb-21 17:15 38.879968 -109.204314 248 38163ft 353kts
19-Feb-21 17:16 38.831841 -109.313990 248 38183ft 356kts
19-Feb-21 17:17 38.783125 -109.424409 248 38181ft 356kts
19-Feb-21 17:18 38.734103 -109.535146 248 38179ft 357kts
19-Feb-21 17:19 38.685138 -109.645367 248 38177ft 358kts
19-Feb-21 17:20 38.635795 -109.756056 248 38197ft 359kts
19-Feb-21 17:21 38.588827 -109.861045 248 38195ft 359kts
19-Feb-21 17:22 38.539153 -109.971699 248 38195ft 361kts
19-Feb-21 17:23 38.489278 -110.082453 247 38201ft 360kts
19-Feb-21 17:24 38.439402 -110.192802 247 38206ft 360kts
19-Feb-21 17:25 38.389318 -110.303231 247 38204ft 360kts
19-Feb-21 17:26 38.339150 -110.413466 247 38201ft 360kts
19-Feb-21 17:27 38.288903 -110.523494 247 38199ft 360kts
19-Feb-21 17:28 38.238595 -110.633285 247 38197ft 359kts
19-Feb-21 17:29 38.188035 -110.743235 247 38217ft 360kts
19-Feb-21 17:30 38.137451 -110.852887 247 38214ft 360kts
19-Feb-21 17:31 38.086882 -110.962108 247 38209ft 360kts
19-Feb-21 17:32 38.036205 -111.071216 246 38202ft 359kts
19-Feb-21 17:33 37.985265 -111.180551 246 38199ft 362kts
19-Feb-21 17:34 37.934019 -111.290084 246 38196ft 363kts
19-Feb-21 17:35 37.882505 -111.399860 246 38192ft 362kts
19-Feb-21 17:36 37.831123 -111.508988 246 38190ft 362kts
19-Feb-21 17:37 37.779432 -111.618412 246 38188ft 362kts
19-Feb-21 17:38 37.727732 -111.727485 245 38207ft 362kts
19-Feb-21 17:39 37.676099 -111.836053 245 38205ft 362kts
19-Feb-21 17:40 37.624236 -111.944746 245 38209ft 362kts
19-Feb-21 17:41 37.572290 -112.053250 245 38215ft 362kts
19-Feb-21 17:42 37.520196 -112.161942 245 38215ft 363kts
19-Feb-21 17:43 37.468175 -112.270766 245 38214ft 363kts
19-Feb-21 17:44 37.416150 -112.379261 245 38211ft 363kts
19-Feb-21 17:45 37.363881 -112.487891 245 38209ft 364kts
19-Feb-21 17:46 37.311353 -112.596712 245 38207ft 365kts
19-Feb-21 17:47 37.258554 -112.705711 245 38225ft 365kts
19-Feb-21 17:48 37.205792 -112.814300 244 38223ft 366kts
19-Feb-21 17:49 37.152633 -112.923370 244 38209ft 366kts
19-Feb-21 17:50 37.099451 -113.032083 244 38202ft 367kts
19-Feb-21 17:51 37.046079 -113.140834 244 38198ft 367kts
19-Feb-21 17:52 36.992184 -113.250336 244 35786ft 372kts
19-Feb-21 17:53 36.939913 -113.356147 244 32330ft 357kts
19-Feb-21 17:54 36.886890 -113.463167 244 30174ft 367kts
19-Feb-21 17:55 36.832606 -113.572354 243 28129ft 375kts
19-Feb-21 17:56 36.776960 -113.683925 243 26107ft 383kts
19-Feb-21 17:57 36.720103 -113.797516 242 24722ft 380kts
19-Feb-21 17:58 36.668662 -113.899990 243 22325ft 336kts
19-Feb-21 17:59 36.619306 -113.998034 242 20325ft 333kts
19-Feb-21 18:00 36.570385 -114.094826 242 18438ft 330kts
19-Feb-21 18:01 36.521473 -114.190705 241 16785ft 326kts
19-Feb-21 18:02 36.473280 -114.284873 240 15067ft 320kts
19-Feb-21 18:03 36.428318 -114.372444 240 13315ft 278kts
19-Feb-21 18:04 36.386918 -114.452951 239 11801ft 277kts
19-Feb-21 18:05 36.345422 -114.533626 237 10389ft 279kts
19-Feb-21 18:06 36.304381 -114.613122 237 10017ft 270kts
19-Feb-21 18:07 36.264269 -114.691022 235 9019ft 267kts
19-Feb-21 18:08 36.226570 -114.763997 236 8044ft 238kts
19-Feb-21 18:09 36.191717 -114.831156 236 8024ft 228kts
19-Feb-21 18:10 36.158568 -114.899603 260 7062ft 234kts
19-Feb-21 18:11 36.160949 -114.979387 271 5489ft 227kts
19-Feb-21 18:12 36.160117 -115.050643 259 4659ft 182kts
19-Feb-21 18:13 36.146042 -115.104740 239 3887ft 147kts
19-Feb-21 18:14 36.120567 -115.140028 210 2802ft 137kts
19-Feb-21 18:15 36.087380 -115.159937 204 2186ft 109kts
19-Feb-21 18:16 36.081778 -115.165272 270 2185ft 23kts
19-Feb-21 18:17 36.086409 -115.166432 24 2185ft 31kts
19-Feb-21 18:18 36.095735 -115.161075 25 2185ft 39kts
19-Feb-21 18:19 36.100100 -115.158936 348 2185ft 7kts
19-Feb-21 18:20 36.100204 -115.159105 224 2185ft 0kts
19-Feb-21 18:21 36.100204 -115.159105 224 2185ft 0kts
19-Feb-21 18:22 36.100204 -115.159105 224 2185ft 0kts
19-Feb-21 18:23 36.100204 -115.159105 224 2185ft 0kts
19-Feb-21 18:24 36.100204 -115.159105 224 2185ft 0kts
19-Feb-21 18:26 36.100204 -115.159105 224 2185ft 0kts
19-Feb-21 18:27 36.100204 -115.159105 224 2185ft 0kts
19-Feb-21 18:28 36.100204 -115.159105 224 2185ft 0kts
19-Feb-21 18:29 36.100204 -115.159105 224 2185ft 0kts
19-Feb-21 18:30 36.100204 -115.159105 224 2185ft 0kts
19-Feb-21 18:31 36.100204 -115.159105 224 2185ft 0kts

Navigation Log

Ident Type
Flight plan parsing failed, navigation log unavailable